Time,TemperatureF,DewpointF,PressureIn,WindDirection,WindDirectionDegrees,WindSpeedMPH,WindSpeedGustMPH,Humidity,HourlyPrecipIn,Conditions,Clouds,dailyrainin,SoftwareType,DateUTC
2013-04-07 00:03:00,34.0,-99.9,-100.00,ENE,62,7.0,10.0,-999,-99.99,,,-99.99,,2013-04-07 06:03:00,
2013-04-07 00:13:00,34.0,-99.9,-100.00,ENE,62,7.0,10.0,-999,-99.99,,,-99.99,,2013-04-07 06:13:00,
2013-04-07 00:20:00,34.0,-99.9,-100.00,ENE,75,10.0,12.0,-999,-99.99,,,-99.99,,2013-04-07 06:20:00,
2013-04-07 01:02:00,34.0,-99.9,-100.00,ENE,75,10.0,12.0,-999,-99.99,,,-99.99,,2013-04-07 07:02:00,
2013-04-07 01:12:00,34.0,-99.9,-100.00,ENE,75,10.0,12.0,-999,-99.99,,,-99.99,,2013-04-07 07:12:00,
2013-04-07 02:02:00,28.0,-99.9,-100.00,NE,49,15.0,19.0,-999,-99.99,,,-99.99,,2013-04-07 08:02:00,
2013-04-07 02:13:00,28.0,-99.9,-100.00,NE,49,15.0,19.0,-999,-99.99,,,-99.99,,2013-04-07 08:13:00,
2013-04-07 02:23:00,28.0,-99.9,-100.00,North,-999,-999.0,-999.0,-999,-99.99,,,-99.99,,2013-04-07 08:23:00,
2013-04-07 02:33:00,28.0,-99.9,-100.00,North,-999,-999.0,-999.0,-999,-99.99,,,-99.99,,2013-04-07 08:33:00,
2013-04-07 02:40:00,28.0,-99.9,-100.00,North,-999,-999.0,-999.0,-999,-99.99,,,-99.99,,2013-04-07 08:40:00,
2013-04-07 02:43:00,28.0,-99.9,-100.00,North,-999,-999.0,-999.0,-999,-99.99,,,-99.99,,2013-04-07 08:43:00,
2013-04-07 02:53:00,28.0,-99.9,-100.00,North,-999,-999.0,-999.0,-999,-99.99,,,-99.99,,2013-04-07 08:53:00,
2013-04-07 03:05:00,28.0,-99.9,-100.00,North,-999,-999.0,-999.0,-999,-99.99,,,-99.99,,2013-04-07 09:05:00,
2013-04-07 03:23:00,28.0,-99.9,-100.00,North,-999,-999.0,-999.0,-999,-99.99,,,-99.99,,2013-04-07 09:23:00,
2013-04-07 03:34:00,28.0,-99.9,-100.00,North,-999,-999.0,-999.0,-999,-99.99,,,-99.99,,2013-04-07 09:34:00,
2013-04-07 03:54:00,28.0,-99.9,-100.00,North,-999,-999.0,-999.0,-999,-99.99,,,-99.99,,2013-04-07 09:54:00,
2013-04-07 04:35:00,28.0,-99.9,-100.00,North,-999,-999.0,-999.0,-999,-99.99,,,-99.99,,2013-04-07 10:35:00,
2013-04-07 04:44:00,28.0,-99.9,-100.00,North,-999,-999.0,-999.0,-999,-99.99,,,-99.99,,2013-04-07 10:44:00,
2013-04-07 04:55:00,28.0,-99.9,-100.00,North,-999,-999.0,-999.0,-999,-99.99,,,-99.99,,2013-04-07 10:55:00,
2013-04-07 05:04:00,28.0,-99.9,-100.00,North,-999,-999.0,-999.0,-999,-99.99,,,-99.99,,2013-04-07 11:04:00,
2013-04-07 05:53:00,28.0,-99.9,-100.00,ENE,75,22.0,30.0,-999,-99.99,,,-99.99,,2013-04-07 11:53:00,
2013-04-07 06:00:00,28.0,-99.9,-100.00,ENE,73,26.0,31.0,-999,-99.99,,,-99.99,,2013-04-07 12:00:00,
2013-04-07 06:03:00,28.0,-99.9,-100.00,ENE,75,22.0,30.0,-999,-99.99,,,-99.99,,2013-04-07 12:03:00,
2013-04-07 06:54:00,28.0,-99.9,-100.00,ENE,73,26.0,31.0,-999,-99.99,,,-99.99,,2013-04-07 12:54:00,
2013-04-07 07:00:00,28.0,-99.9,-100.00,East,85,11.0,14.0,-999,-99.99,,,-99.99,,2013-04-07 13:00:00,
2013-04-07 07:54:00,28.0,-99.9,-100.00,East,85,11.0,14.0,-999,-99.99,,,-99.99,,2013-04-07 13:54:00,
2013-04-07 08:00:00,30.0,-99.9,-100.00,ENE,68,24.0,28.0,-999,-99.99,,,-99.99,,2013-04-07 14:00:00,
2013-04-07 08:55:00,30.0,-99.9,-100.00,ENE,68,24.0,28.0,-999,-99.99,,,-99.99,,2013-04-07 14:55:00,
2013-04-07 09:00:00,32.0,-99.9,-100.00,East,80,23.0,26.0,-999,-99.99,,,-99.99,,2013-04-07 15:00:00,
2013-04-07 09:55:00,32.0,-99.9,-100.00,East,80,23.0,26.0,-999,-99.99,,,-99.99,,2013-04-07 15:55:00,
2013-04-07 10:00:00,36.0,-99.9,-100.00,NE,55,41.0,44.0,-999,-99.99,,,-99.99,,2013-04-07 16:00:00,
2013-04-07 10:55:00,36.0,-99.9,-100.00,NE,55,41.0,44.0,-999,-99.99,,,-99.99,,2013-04-07 16:55:00,
2013-04-07 11:00:00,37.0,-99.9,-100.00,NE,38,38.0,43.0,-999,-99.99,,,-99.99,,2013-04-07 17:00:00,
2013-04-07 11:54:00,37.0,-99.9,-100.00,NE,38,38.0,43.0,-999,-99.99,,,-99.99,,2013-04-07 17:54:00,
2013-04-07 12:30:00,41.0,-99.9,-100.00,NNE,30,30.0,50.0,-999,-99.99,,,-99.99,,2013-04-07 18:30:00,
2013-04-07 12:53:00,39.0,-99.9,-100.00,NE,50,32.0,48.0,-999,-99.99,,,-99.99,,2013-04-07 18:53:00,
2013-04-07 13:03:00,41.0,-99.9,-100.00,NNE,30,30.0,50.0,-999,-99.99,,,-99.99,,2013-04-07 19:03:00,
2013-04-07 13:13:00,41.0,-99.9,-100.00,NNE,30,30.0,50.0,-999,-99.99,,,-99.99,,2013-04-07 19:13:00,
2013-04-07 13:23:00,41.0,-99.9,-100.00,NNE,30,30.0,50.0,-999,-99.99,,,-99.99,,2013-04-07 19:23:00,
2013-04-07 13:30:00,41.0,-99.9,-100.00,NE,49,37.0,43.0,-999,-99.99,,,-99.99,,2013-04-07 19:30:00,
2013-04-07 14:04:00,41.0,-99.9,-100.00,NE,49,37.0,43.0,-999,-99.99,,,-99.99,,2013-04-07 20:04:00,
2013-04-07 14:14:00,41.0,-99.9,-100.00,NE,49,37.0,43.0,-999,-99.99,,,-99.99,,2013-04-07 20:14:00,
2013-04-07 14:23:00,41.0,-99.9,-100.00,NE,49,37.0,43.0,-999,-99.99,,,-99.99,,2013-04-07 20:23:00,
2013-04-07 14:30:00,43.0,-99.9,-100.00,NNE,20,20.0,35.0,-999,-99.99,,,-99.99,,2013-04-07 20:30:00,
2013-04-07 15:04:00,43.0,-99.9,-100.00,NNE,20,20.0,35.0,-999,-99.99,,,-99.99,,2013-04-07 21:04:00,
2013-04-07 15:14:00,43.0,-99.9,-100.00,NNE,20,20.0,35.0,-999,-99.99,,,-99.99,,2013-04-07 21:14:00,
2013-04-07 15:23:00,43.0,-99.9,-100.00,NNE,20,20.0,35.0,-999,-99.99,,,-99.99,,2013-04-07 21:23:00,
2013-04-07 16:05:00,45.0,-99.9,-100.00,NE,34,34.0,43.0,-999,-99.99,,,-99.99,,2013-04-07 22:05:00,
2013-04-07 16:15:00,45.0,-99.9,-100.00,NE,34,34.0,43.0,-999,-99.99,,,-99.99,,2013-04-07 22:15:00,
2013-04-07 16:24:00,45.0,-99.9,-100.00,NE,34,34.0,43.0,-999,-99.99,,,-99.99,,2013-04-07 22:24:00,
2013-04-07 17:04:00,41.0,-99.9,-100.00,ENE,61,28.0,31.0,-999,-99.99,,,-99.99,,2013-04-07 23:04:00,
2013-04-07 17:13:00,41.0,-99.9,-100.00,ENE,61,28.0,31.0,-999,-99.99,,,-99.99,,2013-04-07 23:13:00,
2013-04-07 17:23:00,41.0,-99.9,-100.00,ENE,61,28.0,31.0,-999,-99.99,,,-99.99,,2013-04-07 23:23:00,
2013-04-07 18:03:00,37.0,-99.9,-100.00,East,86,17.0,20.0,-999,-99.99,,,-99.99,,2013-04-08 00:03:00,
2013-04-07 18:13:00,37.0,-99.9,-100.00,East,86,17.0,20.0,-999,-99.99,,,-99.99,,2013-04-08 00:13:00,
2013-04-07 18:23:00,37.0,-99.9,-100.00,East,86,17.0,20.0,-999,-99.99,,,-99.99,,2013-04-08 00:23:00,
2013-04-07 19:03:00,34.0,-99.9,-100.00,NE,54,15.0,20.0,-999,-99.99,,,-99.99,,2013-04-08 01:03:00,
2013-04-07 19:13:00,34.0,-99.9,-100.00,NE,54,15.0,20.0,-999,-99.99,,,-99.99,,2013-04-08 01:13:00,
2013-04-07 19:23:00,34.0,-99.9,-100.00,NE,54,15.0,20.0,-999,-99.99,,,-99.99,,2013-04-08 01:23:00,
2013-04-07 20:03:00,34.0,-99.9,-100.00,North,3,5.0,5.0,-999,-99.99,,,-99.99,,2013-04-08 02:03:00,
2013-04-07 20:12:00,34.0,-99.9,-100.00,North,3,5.0,5.0,-999,-99.99,,,-99.99,,2013-04-08 02:12:00,
2013-04-07 20:22:00,34.0,-99.9,-100.00,North,3,5.0,5.0,-999,-99.99,,,-99.99,,2013-04-08 02:22:00,
2013-04-07 20:25:00,36.0,-99.9,-100.00,ENE,63,20.0,20.0,-999,-99.99,,,-99.99,,2013-04-08 02:25:00,
2013-04-07 20:55:00,30.0,-99.9,-100.00,North,-999,-999.0,-999.0,-999,-99.99,,,-99.99,,2013-04-08 02:55:00,
2013-04-07 21:10:00,36.0,-99.9,-100.00,ENE,63,20.0,20.0,-999,-99.99,,,-99.99,,2013-04-08 03:10:00,
2013-04-07 21:17:00,36.0,-99.9,-100.00,ENE,63,20.0,20.0,-999,-99.99,,,-99.99,,2013-04-08 03:17:00,
2013-04-07 21:37:00,30.0,-99.9,-100.00,North,-999,-999.0,-999.0,-999,-99.99,,,-99.99,,2013-04-08 03:37:00,
2013-04-07 22:30:00,32.0,-99.9,-100.00,North,-999,-999.0,-999.0,-999,-99.99,,,-99.99,,2013-04-08 04:30:00,
2013-04-07 22:35:00,32.0,-99.9,-100.00,North,-999,-999.0,-999.0,-999,-99.99,,,-99.99,,2013-04-08 04:35:00,
2013-04-07 22:45:00,32.0,-99.9,-100.00,North,-999,-999.0,-999.0,-999,-99.99,,,-99.99,,2013-04-08 04:45:00,
2013-04-07 22:53:00,32.0,-99.9,-100.00,North,-999,-999.0,-999.0,-999,-99.99,,,-99.99,,2013-04-08 04:53:00,
2013-04-07 23:30:00,32.0,-99.9,-100.00,ENE,77,14.0,19.0,-999,-99.99,,,-99.99,,2013-04-08 05:30:00,